createdAt,value
2023-04-23T00:03:49.072Z,96979.41
2023-04-23T00:07:52.939Z,96976.72
2023-04-23T00:11:59.256Z,96977.47
2023-04-23T00:16:03.570Z,96977.78
2023-04-23T00:20:08.116Z,96979.72
2023-04-23T00:24:11.938Z,96978.22
2023-04-23T00:28:16.631Z,96962.69
2023-04-23T00:32:20.121Z,96964.59
2023-04-23T00:36:23.699Z,96966.34
2023-04-23T00:40:27.177Z,96964.28
2023-04-23T00:44:31.898Z,96973.28
2023-04-23T00:48:36.462Z,96968.44
2023-04-23T00:52:40.811Z,96978.88
2023-04-23T00:56:44.428Z,96968.06
2023-04-23T01:00:51.768Z,96976.78
2023-04-23T01:04:57.424Z,96970.38
2023-04-23T01:09:02.854Z,96971.63
2023-04-23T01:13:07.221Z,96983.06
2023-04-23T01:17:12.404Z,96980.63
2023-04-23T01:21:17.603Z,96992.69
2023-04-23T01:25:23.073Z,96997.13
2023-04-23T01:29:27.151Z,97003.50
2023-04-23T01:33:31.225Z,97007.09
2023-04-23T01:37:39.929Z,97013.16
2023-04-23T01:41:45.422Z,97015.75
2023-04-23T01:45:48.706Z,97020.34
2023-04-23T01:49:51.994Z,97021.34
2023-04-23T01:53:55.769Z,97018.09
2023-04-23T01:58:00.308Z,97025.31
2023-04-23T02:02:03.791Z,97025.50
2023-04-23T02:06:08.820Z,97019.09
2023-04-23T02:10:13.148Z,97012.50
2023-04-23T02:14:18.070Z,97015.56
2023-04-23T02:18:21.393Z,97022.41
2023-04-23T02:22:26.724Z,97020.16
2023-04-23T02:26:30.737Z,97024.50
2023-04-23T02:30:35.496Z,97029.19
2023-04-23T02:34:39.676Z,97031.09
2023-04-23T02:38:45.282Z,97033.78
2023-04-23T02:42:48.926Z,97044.41
2023-04-23T02:46:54.213Z,97032.31
2023-04-23T02:50:58.409Z,97042.41
2023-04-23T02:55:03.970Z,97040.06
2023-04-23T02:59:08.983Z,97045.41
2023-04-23T03:03:15.515Z,97044.91
2023-04-23T03:07:19.017Z,97041.88
2023-04-23T03:11:22.746Z,97044.81
2023-04-23T03:15:27.767Z,97032.09
2023-04-23T03:19:32.711Z,97036.81
2023-04-23T03:23:40.068Z,97038.13
2023-04-23T03:27:45.071Z,97026.53
2023-04-23T03:31:48.781Z,97028.22
2023-04-23T03:35:53.515Z,97033.31
2023-04-23T03:39:57.235Z,97026.75
2023-04-23T03:44:00.369Z,97028.97
2023-04-23T03:48:03.824Z,97033.19
2023-04-23T03:52:08.231Z,97036.00
2023-04-23T03:56:12.229Z,97033.56
2023-04-23T04:00:15.793Z,97039.81
2023-04-23T04:04:19.473Z,97043.22
2023-04-23T04:08:24.695Z,97041.59
2023-04-23T04:12:28.089Z,97035.38
2023-04-23T04:16:31.587Z,97042.22
2023-04-23T04:20:35.284Z,97034.81
2023-04-23T04:24:42.247Z,97043.69
2023-04-23T04:28:45.815Z,97037.91
2023-04-23T04:32:51.105Z,97031.28
2023-04-23T04:36:55.836Z,97041.38
2023-04-23T04:41:02.349Z,97047.91
2023-04-23T04:45:06.638Z,97048.88
2023-04-23T04:49:12.894Z,97048.69
2023-04-23T04:53:16.493Z,97052.72
2023-04-23T04:57:23.091Z,97050.19
2023-04-23T05:01:27.763Z,97051.47
2023-04-23T05:05:32.122Z,97054.78
2023-04-23T05:09:36.075Z,97053.53
2023-04-23T05:13:40.760Z,97060.91
2023-04-23T05:17:45.470Z,97058.81
2023-04-23T05:21:48.740Z,97067.19
2023-04-23T05:25:56.342Z,97067.22
2023-04-23T05:30:02.235Z,97062.00
2023-04-23T05:34:05.617Z,97071.13
2023-04-23T05:38:08.984Z,97062.44
2023-04-23T05:42:13.455Z,97071.34
2023-04-23T05:46:18.542Z,97070.53
2023-04-23T05:50:23.868Z,97077.19
2023-04-23T05:54:26.817Z,97076.53
2023-04-23T05:58:30.335Z,97077.75
2023-04-23T06:02:35.039Z,97078.13
2023-04-23T06:06:38.624Z,97083.75
2023-04-23T06:10:42.077Z,97085.31
2023-04-23T06:14:45.892Z,97074.38
2023-04-23T06:18:51.002Z,97075.69
2023-04-23T06:22:54.849Z,97079.00
2023-04-23T06:26:59.189Z,97084.66
2023-04-23T06:31:04.655Z,97083.06
2023-04-23T06:35:12.243Z,97079.31
2023-04-23T06:39:16.213Z,97071.94
2023-04-23T06:43:19.628Z,97072.94
2023-04-23T06:47:23.788Z,97071.91
2023-04-23T06:51:28.466Z,97074.94
2023-04-23T06:55:34.555Z,97075.22
2023-04-23T06:59:37.515Z,97076.28
2023-04-23T07:03:45.234Z,97070.03
2023-04-23T07:07:49.861Z,97075.50
2023-04-23T07:11:53.519Z,97066.69
2023-04-23T07:15:56.684Z,97059.69
2023-04-23T07:20:00.221Z,97062.69
2023-04-23T07:24:07.525Z,97070.19
2023-04-23T07:28:10.892Z,97073.25
2023-04-23T07:32:14.156Z,97068.91
2023-04-23T07:36:18.218Z,97066.16
2023-04-23T07:40:24.516Z,97064.06
2023-04-23T07:44:28.067Z,97057.91
2023-04-23T07:48:31.498Z,97062.56
2023-04-23T07:52:35.010Z,97062.50
2023-04-23T07:56:40.519Z,97061.31
2023-04-23T08:00:45.417Z,97056.44
2023-04-23T08:04:48.579Z,97055.25
2023-04-23T08:08:52.846Z,97049.50
2023-04-23T08:12:57.717Z,97054.31
2023-04-23T08:17:01.979Z,97053.19
2023-04-23T08:21:06.013Z,97052.59
2023-04-23T08:25:11.467Z,97043.69
2023-04-23T08:29:16.204Z,97046.25
2023-04-23T08:33:19.519Z,97043.28
2023-04-23T08:37:30.334Z,97043.22
2023-04-23T08:41:40.468Z,97036.69
2023-04-23T08:45:47.964Z,97032.88
2023-04-23T08:49:57.008Z,97030.16
2023-04-23T08:54:04.976Z,97028.56
2023-04-23T08:58:08.241Z,97028.50
2023-04-23T09:02:13.324Z,97025.16
2023-04-23T09:06:16.783Z,97032.47
2023-04-23T09:10:20.001Z,97030.63
2023-04-23T09:14:25.282Z,97027.44
2023-04-23T09:18:31.162Z,97021.06
2023-04-23T09:22:43.188Z,97014.47
2023-04-23T09:26:49.811Z,97014.81
2023-04-23T09:30:54.782Z,97007.75
2023-04-23T09:34:59.503Z,97008.56
2023-04-23T09:39:02.492Z,96998.31
2023-04-23T09:43:10.989Z,96991.50
2023-04-23T09:47:16.322Z,96999.94
2023-04-23T09:51:21.406Z,96985.41
2023-04-23T09:55:31.040Z,96981.81
2023-04-23T09:59:46.742Z,96986.31
2023-04-23T10:03:55.174Z,96979.25
2023-04-23T10:08:04.114Z,96973.97
2023-04-23T10:12:20.712Z,96967.00
2023-04-23T10:16:42.016Z,96966.66
2023-04-23T10:20:53.325Z,96967.03
2023-04-23T10:24:59.416Z,96957.63
2023-04-23T10:29:08.044Z,96950.16
2023-04-23T10:33:26.544Z,96943.00
2023-04-23T10:37:33.105Z,96941.53
2023-04-23T10:41:40.010Z,96937.66
2023-04-23T10:45:45.672Z,96937.69
2023-04-23T10:49:50.774Z,96936.63
2023-04-23T10:53:54.424Z,96926.09
2023-04-23T10:58:04.438Z,96920.59
2023-04-23T11:02:10.006Z,96928.16
2023-04-23T11:06:19.276Z,96909.59
2023-04-23T11:10:22.406Z,96912.34
2023-04-23T11:14:48.395Z,96903.34
2023-04-23T11:19:03.747Z,96897.75
2023-04-23T11:23:10.572Z,96899.69
2023-04-23T11:27:15.434Z,96900.22
2023-04-23T11:31:20.455Z,96896.63
2023-04-23T11:35:28.472Z,96881.44
2023-04-23T11:39:31.790Z,96883.59
2023-04-23T11:43:35.705Z,96887.41
2023-04-23T11:47:41.481Z,96882.47
2023-04-23T11:51:45.751Z,96877.41
2023-04-23T11:55:51.175Z,96867.31
2023-04-23T11:59:55.976Z,96859.97
2023-04-23T12:04:01.554Z,96857.50
2023-04-23T12:08:09.080Z,96855.78
2023-04-23T12:12:12.270Z,96857.94
2023-04-23T12:16:15.800Z,96849.75
2023-04-23T12:20:23.017Z,96851.84
2023-04-23T12:24:27.403Z,96839.38
2023-04-23T12:28:31.178Z,96838.91
2023-04-23T12:32:35.022Z,96836.81
2023-04-23T12:36:41.264Z,96833.81
2023-04-23T12:40:44.264Z,96830.84
2023-04-23T12:44:47.901Z,96823.88
2023-04-23T12:48:51.253Z,96825.66
2023-04-23T12:52:56.481Z,96823.66
2023-04-23T12:57:03.103Z,96814.09
2023-04-23T13:01:06.617Z,96813.88
2023-04-23T13:05:10.738Z,96821.94
2023-04-23T13:09:15.628Z,96819.25
2023-04-23T13:13:18.853Z,96808.28
2023-04-23T13:17:23.593Z,96803.69
2023-04-23T13:21:26.874Z,96801.41
2023-04-23T13:25:32.822Z,96794.47
2023-04-23T13:29:35.742Z,96789.34
2023-04-23T13:33:39.485Z,96783.66
2023-04-23T13:37:42.877Z,96781.16
2023-04-23T13:41:59.142Z,96777.19
2023-04-23T13:46:09.911Z,96771.03
2023-04-23T13:50:13.815Z,96768.69
2023-04-23T13:54:17.092Z,96761.91
2023-04-23T13:58:22.308Z,96746.06
2023-04-23T14:02:27.999Z,96743.31
2023-04-23T14:06:32.072Z,96742.31
2023-04-23T14:10:37.146Z,96745.22
2023-04-23T14:14:42.000Z,96734.00
2023-04-23T14:18:45.798Z,96728.47
2023-04-23T14:22:51.311Z,96727.63
2023-04-23T14:26:54.142Z,96725.69
2023-04-23T14:30:59.586Z,96717.63
2023-04-23T14:35:03.777Z,96704.53
2023-04-23T14:39:07.506Z,96699.22
2023-04-23T14:43:15.588Z,96693.78
2023-04-23T14:47:21.802Z,96683.66
2023-04-23T14:51:24.933Z,96685.69
2023-04-23T14:55:28.546Z,96683.84
2023-04-23T14:59:31.560Z,96669.31
2023-04-23T15:03:37.315Z,96667.34
2023-04-23T15:07:42.133Z,96662.44
2023-04-23T15:11:45.669Z,96656.81
2023-04-23T15:16:00.202Z,96656.03
2023-04-23T15:20:05.221Z,96649.13
2023-04-23T15:24:10.071Z,96655.09
2023-04-23T15:28:13.443Z,96655.69
2023-04-23T15:32:16.575Z,96652.53
2023-04-23T15:36:21.259Z,96658.28
2023-04-23T15:40:26.842Z,96656.38
2023-04-23T15:44:35.241Z,96659.16
2023-04-23T15:48:38.355Z,96658.06
2023-04-23T15:52:43.862Z,96652.78
2023-04-23T15:56:46.875Z,96651.44
2023-04-23T16:00:50.467Z,96645.69
2023-04-23T16:04:55.021Z,96642.19
2023-04-23T16:08:59.648Z,96630.75
2023-04-23T16:13:03.601Z,96627.78
2023-04-23T16:17:07.321Z,96614.97
2023-04-23T16:21:12.526Z,96619.19
2023-04-23T16:25:18.128Z,96609.59
2023-04-23T16:29:23.083Z,96603.31
2023-04-23T16:33:27.734Z,96594.41
2023-04-23T16:37:30.887Z,96597.13
2023-04-23T16:41:35.765Z,96600.13
2023-04-23T16:45:41.362Z,96589.81
2023-04-23T16:49:48.088Z,96596.75
2023-04-23T16:53:51.201Z,96596.78
2023-04-23T16:57:56.834Z,96592.03
2023-04-23T17:01:59.977Z,96599.69
2023-04-23T17:06:11.895Z,96593.31
2023-04-23T17:10:15.517Z,96587.06
2023-04-23T17:14:20.401Z,96583.78
2023-04-23T17:18:23.416Z,96585.78
2023-04-23T17:22:27.158Z,96591.19
2023-04-23T17:26:30.317Z,96590.00
2023-04-23T17:30:35.198Z,96598.59
2023-04-23T17:34:38.181Z,96602.63
2023-04-23T17:38:43.336Z,96614.81
2023-04-23T17:42:46.246Z,96606.78
2023-04-23T17:46:52.715Z,96612.13
2023-04-23T17:50:55.712Z,96615.81
2023-04-23T17:55:00.354Z,96615.75
2023-04-23T17:59:03.981Z,96622.53
2023-04-23T18:03:09.213Z,96622.66
2023-04-23T18:07:12.469Z,96619.09
2023-04-23T18:11:17.576Z,96616.88
2023-04-23T18:15:21.233Z,96614.38
2023-04-23T18:19:27.212Z,96603.00
2023-04-23T18:23:31.586Z,96602.19
2023-04-23T18:27:36.862Z,96616.25
2023-04-23T18:31:40.020Z,96612.63
2023-04-23T18:35:45.011Z,96609.59
2023-04-23T18:39:48.172Z,96618.94
2023-04-23T18:43:54.065Z,96579.19
2023-04-23T18:48:50.131Z,96593.06
2023-04-23T18:53:15.763Z,96580.34
2023-04-23T18:57:20.393Z,96596.72
2023-04-23T19:01:24.707Z,96601.06
2023-04-23T19:05:28.225Z,96593.94
2023-04-23T19:09:33.737Z,96586.19
2023-04-23T19:13:37.296Z,96582.44
2023-04-23T19:17:41.581Z,96579.94
2023-04-23T19:21:44.550Z,96573.38
2023-04-23T19:25:49.478Z,96574.25
2023-04-23T19:29:54.522Z,96575.31
2023-04-23T19:33:58.597Z,96580.84
2023-04-23T19:38:01.807Z,96583.72
2023-04-23T19:42:07.999Z,96583.38
2023-04-23T19:46:10.985Z,96570.63
2023-04-23T19:50:16.103Z,96575.13
2023-04-23T19:54:19.420Z,96582.03
2023-04-23T19:58:25.162Z,96583.75
2023-04-23T20:02:28.427Z,96583.19
2023-04-23T20:06:34.252Z,96582.06
2023-04-23T20:10:37.630Z,96588.75
2023-04-23T20:14:42.924Z,96588.38
2023-04-23T20:18:47.326Z,96585.94
2023-04-23T20:22:50.905Z,96581.16
2023-04-23T20:26:54.236Z,96573.75
2023-04-23T20:30:59.350Z,96589.25
2023-04-23T20:35:02.434Z,96590.06
2023-04-23T20:39:06.135Z,96593.94
2023-04-23T20:43:10.012Z,96588.31
2023-04-23T20:47:17.319Z,96587.53
2023-04-23T20:51:21.022Z,96588.72
2023-04-23T20:55:26.565Z,96601.78
2023-04-23T20:59:29.792Z,96594.16
2023-04-23T21:03:37.535Z,96587.53
2023-04-23T21:07:44.562Z,96586.13
2023-04-23T21:11:48.283Z,96594.56
2023-04-23T21:15:52.033Z,96597.56
2023-04-23T21:19:58.696Z,96601.41
2023-04-23T21:24:02.415Z,96601.59
2023-04-23T21:28:06.130Z,96590.56
2023-04-23T21:32:09.828Z,96600.19
2023-04-23T21:36:17.066Z,96602.81
2023-04-23T21:40:20.342Z,96607.38
2023-04-23T21:44:23.871Z,96629.16
2023-04-23T21:48:27.454Z,96637.00
2023-04-23T21:52:33.157Z,96640.78
2023-04-23T21:56:36.931Z,96659.28
2023-04-23T22:04:51.156Z,96645.59
2023-04-23T22:08:56.257Z,96615.03
2023-04-23T22:13:00.863Z,96615.03
2023-04-23T22:17:04.020Z,96615.63
2023-04-23T22:21:10.520Z,96616.66
2023-04-23T22:25:17.351Z,96610.00
2023-04-23T22:29:20.456Z,96603.81
2023-04-23T22:33:26.517Z,96613.06
2023-04-23T22:37:30.088Z,96631.16
2023-04-23T22:41:36.734Z,96627.75
2023-04-23T22:45:40.496Z,96628.69
2023-04-23T22:49:44.623Z,96625.28
2023-04-23T22:53:50.944Z,96620.44
2023-04-23T22:57:57.151Z,96618.22
2023-04-23T23:02:00.640Z,96610.19
2023-04-23T23:06:04.440Z,96616.81
2023-04-23T23:10:10.110Z,96630.66
2023-04-23T23:14:15.112Z,96630.03
2023-04-23T23:18:19.064Z,96629.06
2023-04-23T23:22:22.290Z,96641.13
2023-04-23T23:26:26.490Z,96638.16
2023-04-23T23:30:31.558Z,96642.78
2023-04-23T23:34:35.048Z,96653.69
2023-04-23T23:38:38.005Z,96655.91
2023-04-23T23:42:41.811Z,96652.72
2023-04-23T23:46:46.507Z,96670.03
2023-04-23T23:50:50.041Z,96660.97
2023-04-23T23:54:53.311Z,96667.59
2023-04-23T23:58:56.893Z,96671.03
